sensor_id;sensor_type;location;lat;lon;timestamp;P1;durP1;ratioP1;P2;durP2;ratioP2
62123;SDS011;48110;47.532;19.078;2022-10-01T00:01:15;24.58;;;17.55;;
62123;SDS011;48110;47.532;19.078;2022-10-01T00:04:26;20.33;;;17.10;;
62123;SDS011;48110;47.532;19.078;2022-10-01T00:07:38;23.33;;;17.45;;
62123;SDS011;48110;47.532;19.078;2022-10-01T00:10:49;24.10;;;17.55;;
62123;SDS011;48110;47.532;19.078;2022-10-01T00:13:56;22.15;;;17.95;;
62123;SDS011;48110;47.532;19.078;2022-10-01T00:17:03;22.17;;;18.12;;
62123;SDS011;48110;47.532;19.078;2022-10-01T00:20:12;24.37;;;18.42;;
62123;SDS011;48110;47.532;19.078;2022-10-01T00:23:20;26.12;;;20.88;;
62123;SDS011;48110;47.532;19.078;2022-10-01T00:26:28;25.40;;;19.85;;
62123;SDS011;48110;47.532;19.078;2022-10-01T00:29:37;23.45;;;20.08;;
62123;SDS011;48110;47.532;19.078;2022-10-01T00:32:46;24.35;;;20.40;;
62123;SDS011;48110;47.532;19.078;2022-10-01T00:35:53;24.33;;;20.73;;
62123;SDS011;48110;47.532;19.078;2022-10-01T00:39:00;25.67;;;22.02;;
62123;SDS011;48110;47.532;19.078;2022-10-01T00:42:16;26.10;;;21.83;;
62123;SDS011;48110;47.532;19.078;2022-10-01T00:45:28;25.62;;;22.10;;
62123;SDS011;48110;47.532;19.078;2022-10-01T00:48:41;27.05;;;21.08;;
62123;SDS011;48110;47.532;19.078;2022-10-01T00:51:58;28.15;;;21.80;;
62123;SDS011;48110;47.532;19.078;2022-10-01T00:58:24;26.77;;;20.15;;
62123;SDS011;48110;47.532;19.078;2022-10-01T01:01:34;24.85;;;19.02;;
62123;SDS011;48110;47.532;19.078;2022-10-01T01:04:45;24.33;;;18.65;;
62123;SDS011;48110;47.532;19.078;2022-10-01T01:18:39;23.67;;;19.37;;
62123;SDS011;48110;47.532;19.078;2022-10-01T01:21:56;27.25;;;21.02;;
62123;SDS011;48110;47.532;19.078;2022-10-01T01:25:12;24.23;;;19.05;;
62123;SDS011;48110;47.532;19.078;2022-10-01T01:28:25;25.25;;;19.02;;
62123;SDS011;48110;47.532;19.078;2022-10-01T01:31:45;23.27;;;19.55;;
62123;SDS011;48110;47.532;19.078;2022-10-01T01:34:54;24.30;;;19.60;;
62123;SDS011;48110;47.532;19.078;2022-10-01T01:38:09;24.77;;;20.65;;
62123;SDS011;48110;47.532;19.078;2022-10-01T01:41:20;28.23;;;21.25;;
62123;SDS011;48110;47.532;19.078;2022-10-01T01:44:36;28.17;;;22.10;;
62123;SDS011;48110;47.532;19.078;2022-10-01T01:47:46;26.42;;;21.25;;
62123;SDS011;48110;47.532;19.078;2022-10-01T01:50:58;30.05;;;23.48;;
62123;SDS011;48110;47.532;19.078;2022-10-01T01:54:12;27.08;;;22.27;;
62123;SDS011;48110;47.532;19.078;2022-10-01T01:57:20;26.33;;;22.67;;
62123;SDS011;48110;47.532;19.078;2022-10-01T02:00:33;29.30;;;23.02;;
62123;SDS011;48110;47.532;19.078;2022-10-01T02:03:42;28.55;;;21.52;;
62123;SDS011;48110;47.532;19.078;2022-10-01T02:14:10;25.10;;;20.37;;
62123;SDS011;48110;47.532;19.078;2022-10-01T02:17:53;26.00;;;18.25;;
62123;SDS011;48110;47.532;19.078;2022-10-01T02:21:29;23.08;;;19.05;;
62123;SDS011;48110;47.532;19.078;2022-10-01T02:25:00;25.33;;;19.60;;
62123;SDS011;48110;47.532;19.078;2022-10-01T02:28:13;24.67;;;18.70;;
62123;SDS011;48110;47.532;19.078;2022-10-01T02:31:26;24.70;;;18.85;;
62123;SDS011;48110;47.532;19.078;2022-10-01T02:34:38;24.67;;;20.10;;
62123;SDS011;48110;47.532;19.078;2022-10-01T02:37:47;26.40;;;19.25;;
62123;SDS011;48110;47.532;19.078;2022-10-01T02:40:57;24.48;;;20.08;;
62123;SDS011;48110;47.532;19.078;2022-10-01T02:44:15;22.60;;;19.80;;
62123;SDS011;48110;47.532;19.078;2022-10-01T02:47:31;23.77;;;19.30;;
62123;SDS011;48110;47.532;19.078;2022-10-01T02:50:47;22.42;;;19.87;;
62123;SDS011;48110;47.532;19.078;2022-10-01T02:54:10;24.40;;;20.35;;
62123;SDS011;48110;47.532;19.078;2022-10-01T02:57:22;28.42;;;21.73;;
62123;SDS011;48110;47.532;19.078;2022-10-01T03:00:32;24.42;;;20.65;;
62123;SDS011;48110;47.532;19.078;2022-10-01T03:03:42;24.73;;;20.67;;
62123;SDS011;48110;47.532;19.078;2022-10-01T03:06:49;23.17;;;19.98;;
62123;SDS011;48110;47.532;19.078;2022-10-01T03:09:56;26.40;;;20.12;;
62123;SDS011;48110;47.532;19.078;2022-10-01T03:13:03;25.55;;;21.12;;
62123;SDS011;48110;47.532;19.078;2022-10-01T03:16:12;26.08;;;22.15;;
62123;SDS011;48110;47.532;19.078;2022-10-01T03:19:19;27.58;;;21.33;;
62123;SDS011;48110;47.532;19.078;2022-10-01T03:22:31;26.37;;;20.83;;
62123;SDS011;48110;47.532;19.078;2022-10-01T03:25:39;30.80;;;22.58;;
62123;SDS011;48110;47.532;19.078;2022-10-01T03:28:49;26.57;;;20.83;;
62123;SDS011;48110;47.532;19.078;2022-10-01T03:31:57;24.85;;;20.12;;
62123;SDS011;48110;47.532;19.078;2022-10-01T03:35:09;27.17;;;21.48;;
62123;SDS011;48110;47.532;19.078;2022-10-01T03:38:16;28.08;;;21.50;;
62123;SDS011;48110;47.532;19.078;2022-10-01T03:41:27;27.33;;;21.25;;
62123;SDS011;48110;47.532;19.078;2022-10-01T03:44:38;27.77;;;20.50;;
62123;SDS011;48110;47.532;19.078;2022-10-01T03:47:52;24.58;;;19.67;;
62123;SDS011;48110;47.532;19.078;2022-10-01T03:50:58;27.87;;;20.62;;
62123;SDS011;48110;47.532;19.078;2022-10-01T03:54:07;23.50;;;20.10;;
62123;SDS011;48110;47.532;19.078;2022-10-01T03:57:14;29.35;;;21.35;;
62123;SDS011;48110;47.532;19.078;2022-10-01T04:00:20;30.75;;;22.25;;
62123;SDS011;48110;47.532;19.078;2022-10-01T04:03:28;30.33;;;21.92;;
62123;SDS011;48110;47.532;19.078;2022-10-01T04:06:35;32.17;;;22.05;;
62123;SDS011;48110;47.532;19.078;2022-10-01T04:09:45;27.35;;;20.85;;
62123;SDS011;48110;47.532;19.078;2022-10-01T04:12:54;29.60;;;21.48;;
62123;SDS011;48110;47.532;19.078;2022-10-01T04:16:05;25.83;;;20.00;;
62123;SDS011;48110;47.532;19.078;2022-10-01T04:19:16;26.37;;;19.87;;
62123;SDS011;48110;47.532;19.078;2022-10-01T04:22:28;26.62;;;19.62;;
62123;SDS011;48110;47.532;19.078;2022-10-01T04:25:35;25.50;;;20.05;;
62123;SDS011;48110;47.532;19.078;2022-10-01T04:28:43;27.92;;;21.27;;
62123;SDS011;48110;47.532;19.078;2022-10-01T04:31:52;29.55;;;21.23;;
62123;SDS011;48110;47.532;19.078;2022-10-01T04:34:58;25.50;;;20.30;;
62123;SDS011;48110;47.532;19.078;2022-10-01T04:38:06;27.27;;;21.08;;
62123;SDS011;48110;47.532;19.078;2022-10-01T04:41:17;28.08;;;20.85;;
62123;SDS011;48110;47.532;19.078;2022-10-01T04:44:25;28.35;;;22.35;;
62123;SDS011;48110;47.532;19.078;2022-10-01T04:47:36;31.30;;;21.80;;
62123;SDS011;48110;47.532;19.078;2022-10-01T04:50:52;34.10;;;21.20;;
62123;SDS011;48110;47.532;19.078;2022-10-01T04:53:59;28.25;;;20.15;;
62123;SDS011;48110;47.532;19.078;2022-10-01T04:57:09;26.60;;;21.52;;
62123;SDS011;48110;47.532;19.078;2022-10-01T05:00:19;28.23;;;21.65;;
62123;SDS011;48110;47.532;19.078;2022-10-01T05:03:29;26.73;;;21.00;;
62123;SDS011;48110;47.532;19.078;2022-10-01T05:06:37;28.17;;;22.50;;
62123;SDS011;48110;47.532;19.078;2022-10-01T05:09:46;27.80;;;22.37;;
62123;SDS011;48110;47.532;19.078;2022-10-01T05:12:57;30.25;;;23.12;;
62123;SDS011;48110;47.532;19.078;2022-10-01T05:16:06;31.50;;;23.73;;
62123;SDS011;48110;47.532;19.078;2022-10-01T05:19:16;29.90;;;23.15;;
62123;SDS011;48110;47.532;19.078;2022-10-01T05:22:25;34.67;;;23.02;;
62123;SDS011;48110;47.532;19.078;2022-10-01T05:28:39;28.87;;;22.23;;
62123;SDS011;48110;47.532;19.078;2022-10-01T05:31:48;29.37;;;22.73;;
62123;SDS011;48110;47.532;19.078;2022-10-01T05:34:55;32.55;;;22.95;;
62123;SDS011;48110;47.532;19.078;2022-10-01T05:38:03;45.00;;;23.55;;
62123;SDS011;48110;47.532;19.078;2022-10-01T05:41:12;34.05;;;22.62;;
62123;SDS011;48110;47.532;19.078;2022-10-01T05:44:17;34.70;;;22.83;;
62123;SDS011;48110;47.532;19.078;2022-10-01T05:47:26;39.90;;;26.12;;
62123;SDS011;48110;47.532;19.078;2022-10-01T05:50:38;52.30;;;24.70;;
62123;SDS011;48110;47.532;19.078;2022-10-01T05:53:48;35.53;;;22.98;;
62123;SDS011;48110;47.532;19.078;2022-10-01T05:56:58;49.22;;;25.02;;
62123;SDS011;48110;47.532;19.078;2022-10-01T06:00:06;34.05;;;22.90;;
62123;SDS011;48110;47.532;19.078;2022-10-01T06:03:14;37.72;;;22.37;;
62123;SDS011;48110;47.532;19.078;2022-10-01T06:06:24;35.75;;;23.10;;
62123;SDS011;48110;47.532;19.078;2022-10-01T06:09:34;37.83;;;23.95;;
62123;SDS011;48110;47.532;19.078;2022-10-01T06:12:42;37.15;;;24.23;;
62123;SDS011;48110;47.532;19.078;2022-10-01T06:15:47;28.92;;;23.23;;
62123;SDS011;48110;47.532;19.078;2022-10-01T06:19:00;32.72;;;24.17;;
62123;SDS011;48110;47.532;19.078;2022-10-01T06:22:08;35.60;;;22.90;;
62123;SDS011;48110;47.532;19.078;2022-10-01T06:25:16;32.97;;;23.15;;
62123;SDS011;48110;47.532;19.078;2022-10-01T06:28:22;29.48;;;22.40;;
62123;SDS011;48110;47.532;19.078;2022-10-01T06:31:32;31.73;;;22.77;;
62123;SDS011;48110;47.532;19.078;2022-10-01T06:34:38;30.08;;;22.90;;
62123;SDS011;48110;47.532;19.078;2022-10-01T06:37:48;33.20;;;23.67;;
62123;SDS011;48110;47.532;19.078;2022-10-01T06:40:57;32.35;;;23.25;;
62123;SDS011;48110;47.532;19.078;2022-10-01T06:47:15;29.45;;;22.13;;
62123;SDS011;48110;47.532;19.078;2022-10-01T06:50:28;30.95;;;23.23;;
62123;SDS011;48110;47.532;19.078;2022-10-01T06:53:38;32.85;;;23.00;;
62123;SDS011;48110;47.532;19.078;2022-10-01T06:56:47;29.87;;;22.90;;
62123;SDS011;48110;47.532;19.078;2022-10-01T06:59:55;28.08;;;21.87;;
62123;SDS011;48110;47.532;19.078;2022-10-01T07:03:03;30.85;;;21.85;;
62123;SDS011;48110;47.532;19.078;2022-10-01T07:06:14;25.20;;;19.85;;
62123;SDS011;48110;47.532;19.078;2022-10-01T07:09:23;24.77;;;20.37;;
62123;SDS011;48110;47.532;19.078;2022-10-01T07:12:30;22.48;;;18.83;;
62123;SDS011;48110;47.532;19.078;2022-10-01T07:15:38;25.02;;;19.45;;
62123;SDS011;48110;47.532;19.078;2022-10-01T07:18:47;20.00;;;17.52;;
62123;SDS011;48110;47.532;19.078;2022-10-01T07:21:57;26.62;;;18.27;;
62123;SDS011;48110;47.532;19.078;2022-10-01T07:25:04;24.08;;;19.50;;
62123;SDS011;48110;47.532;19.078;2022-10-01T07:31:21;23.95;;;18.75;;
62123;SDS011;48110;47.532;19.078;2022-10-01T07:34:28;22.52;;;18.17;;
62123;SDS011;48110;47.532;19.078;2022-10-01T07:37:35;23.98;;;19.20;;
62123;SDS011;48110;47.532;19.078;2022-10-01T07:40:43;23.67;;;18.30;;
62123;SDS011;48110;47.532;19.078;2022-10-01T07:43:55;25.73;;;17.73;;
62123;SDS011;48110;47.532;19.078;2022-10-01T07:47:01;23.50;;;18.27;;
62123;SDS011;48110;47.532;19.078;2022-10-01T07:50:09;22.13;;;18.30;;
62123;SDS011;48110;47.532;19.078;2022-10-01T07:53:18;22.80;;;17.55;;
62123;SDS011;48110;47.532;19.078;2022-10-01T07:56:28;24.12;;;18.35;;
62123;SDS011;48110;47.532;19.078;2022-10-01T07:59:38;25.37;;;18.02;;
62123;SDS011;48110;47.532;19.078;2022-10-01T08:02:46;20.37;;;17.35;;
62123;SDS011;48110;47.532;19.078;2022-10-01T08:05:55;17.73;;;15.68;;
62123;SDS011;48110;47.532;19.078;2022-10-01T08:09:02;19.77;;;16.20;;
62123;SDS011;48110;47.532;19.078;2022-10-01T08:12:12;18.85;;;15.38;;
62123;SDS011;48110;47.532;19.078;2022-10-01T08:15:18;18.23;;;14.80;;
62123;SDS011;48110;47.532;19.078;2022-10-01T08:18:26;17.48;;;14.55;;
62123;SDS011;48110;47.532;19.078;2022-10-01T08:21:35;19.17;;;14.38;;
62123;SDS011;48110;47.532;19.078;2022-10-01T08:24:43;17.80;;;14.30;;
62123;SDS011;48110;47.532;19.078;2022-10-01T08:27:52;19.67;;;14.63;;
62123;SDS011;48110;47.532;19.078;2022-10-01T08:31:03;18.20;;;14.20;;
62123;SDS011;48110;47.532;19.078;2022-10-01T08:34:16;16.83;;;13.65;;
62123;SDS011;48110;47.532;19.078;2022-10-01T08:37:23;21.87;;;15.88;;
62123;SDS011;48110;47.532;19.078;2022-10-01T08:40:35;19.25;;;15.57;;
62123;SDS011;48110;47.532;19.078;2022-10-01T08:43:48;19.45;;;15.50;;
62123;SDS011;48110;47.532;19.078;2022-10-01T08:46:58;22.70;;;16.23;;
62123;SDS011;48110;47.532;19.078;2022-10-01T08:50:15;21.15;;;16.23;;
62123;SDS011;48110;47.532;19.078;2022-10-01T08:53:44;20.62;;;15.18;;
62123;SDS011;48110;47.532;19.078;2022-10-01T08:56:58;17.98;;;16.08;;
62123;SDS011;48110;47.532;19.078;2022-10-01T09:00:09;21.48;;;16.08;;
62123;SDS011;48110;47.532;19.078;2022-10-01T09:03:17;18.87;;;15.45;;
62123;SDS011;48110;47.532;19.078;2022-10-01T09:06:23;19.02;;;15.57;;
62123;SDS011;48110;47.532;19.078;2022-10-01T09:09:40;22.42;;;18.80;;
62123;SDS011;48110;47.532;19.078;2022-10-01T09:16:33;20.65;;;16.08;;
62123;SDS011;48110;47.532;19.078;2022-10-01T09:20:11;20.90;;;16.58;;
62123;SDS011;48110;47.532;19.078;2022-10-01T09:23:38;20.27;;;16.87;;
62123;SDS011;48110;47.532;19.078;2022-10-01T09:26:59;20.58;;;16.45;;
62123;SDS011;48110;47.532;19.078;2022-10-01T09:30:21;21.65;;;17.65;;
62123;SDS011;48110;47.532;19.078;2022-10-01T09:33:36;20.52;;;16.83;;
62123;SDS011;48110;47.532;19.078;2022-10-01T09:37:06;22.60;;;18.30;;
62123;SDS011;48110;47.532;19.078;2022-10-01T09:40:26;28.77;;;19.02;;
62123;SDS011;48110;47.532;19.078;2022-10-01T09:43:39;24.52;;;17.30;;
62123;SDS011;48110;47.532;19.078;2022-10-01T09:46:49;21.77;;;17.30;;
62123;SDS011;48110;47.532;19.078;2022-10-01T09:49:56;20.80;;;16.40;;
62123;SDS011;48110;47.532;19.078;2022-10-01T09:53:13;20.10;;;16.50;;
62123;SDS011;48110;47.532;19.078;2022-10-01T09:56:27;19.27;;;15.70;;
62123;SDS011;48110;47.532;19.078;2022-10-01T09:59:45;20.20;;;15.10;;
62123;SDS011;48110;47.532;19.078;2022-10-01T10:02:58;19.48;;;16.20;;
62123;SDS011;48110;47.532;19.078;2022-10-01T10:06:03;21.73;;;16.15;;
62123;SDS011;48110;47.532;19.078;2022-10-01T10:09:16;21.92;;;16.08;;
62123;SDS011;48110;47.532;19.078;2022-10-01T10:12:30;21.58;;;15.93;;
62123;SDS011;48110;47.532;19.078;2022-10-01T10:15:50;19.87;;;15.60;;
62123;SDS011;48110;47.532;19.078;2022-10-01T10:19:06;23.25;;;16.17;;
62123;SDS011;48110;47.532;19.078;2022-10-01T10:22:36;20.15;;;16.25;;
62123;SDS011;48110;47.532;19.078;2022-10-01T10:25:43;19.95;;;16.05;;
62123;SDS011;48110;47.532;19.078;2022-10-01T10:28:59;19.85;;;15.93;;
62123;SDS011;48110;47.532;19.078;2022-10-01T10:32:26;17.65;;;14.10;;
62123;SDS011;48110;47.532;19.078;2022-10-01T10:35:32;18.73;;;14.90;;
62123;SDS011;48110;47.532;19.078;2022-10-01T10:38:45;17.77;;;15.02;;
62123;SDS011;48110;47.532;19.078;2022-10-01T10:41:59;19.87;;;13.35;;
62123;SDS011;48110;47.532;19.078;2022-10-01T10:45:13;14.05;;;12.07;;
62123;SDS011;48110;47.532;19.078;2022-10-01T10:48:23;15.05;;;11.98;;
62123;SDS011;48110;47.532;19.078;2022-10-01T10:54:51;15.65;;;11.70;;
62123;SDS011;48110;47.532;19.078;2022-10-01T10:58:12;10.40;;;8.33;;
62123;SDS011;48110;47.532;19.078;2022-10-01T11:01:26;9.32;;;6.87;;
62123;SDS011;48110;47.532;19.078;2022-10-01T11:04:39;12.40;;;6.97;;
62123;SDS011;48110;47.532;19.078;2022-10-01T11:07:53;6.70;;;5.68;;
62123;SDS011;48110;47.532;19.078;2022-10-01T11:14:37;7.68;;;4.57;;
62123;SDS011;48110;47.532;19.078;2022-10-01T11:18:09;5.60;;;4.60;;
62123;SDS011;48110;47.532;19.078;2022-10-01T11:21:31;6.60;;;4.30;;
62123;SDS011;48110;47.532;19.078;2022-10-01T11:24:50;6.45;;;4.22;;
62123;SDS011;48110;47.532;19.078;2022-10-01T11:41:30;8.05;;;4.80;;
62123;SDS011;48110;47.532;19.078;2022-10-01T11:44:44;6.05;;;4.80;;
62123;SDS011;48110;47.532;19.078;2022-10-01T11:48:14;8.07;;;4.85;;
62123;SDS011;48110;47.532;19.078;2022-10-01T11:51:28;6.07;;;4.62;;
62123;SDS011;48110;47.532;19.078;2022-10-01T11:54:57;6.03;;;4.05;;
62123;SDS011;48110;47.532;19.078;2022-10-01T12:05:35;3.87;;;2.70;;
62123;SDS011;48110;47.532;19.078;2022-10-01T12:08:46;5.40;;;2.70;;
62123;SDS011;48110;47.532;19.078;2022-10-01T12:12:09;7.83;;;3.20;;
62123;SDS011;48110;47.532;19.078;2022-10-01T12:15:18;5.43;;;2.90;;
62123;SDS011;48110;47.532;19.078;2022-10-01T12:18:32;5.35;;;2.87;;
62123;SDS011;48110;47.532;19.078;2022-10-01T12:21:49;3.62;;;2.72;;
62123;SDS011;48110;47.532;19.078;2022-10-01T12:24:53;8.18;;;3.30;;
62123;SDS011;48110;47.532;19.078;2022-10-01T12:28:04;9.20;;;3.83;;
62123;SDS011;48110;47.532;19.078;2022-10-01T12:31:19;7.78;;;3.50;;
62123;SDS011;48110;47.532;19.078;2022-10-01T12:34:38;6.28;;;3.12;;
62123;SDS011;48110;47.532;19.078;2022-10-01T12:41:41;3.60;;;2.42;;
62123;SDS011;48110;47.532;19.078;2022-10-01T12:55:30;5.28;;;2.30;;
62123;SDS011;48110;47.532;19.078;2022-10-01T13:14:46;4.20;;;2.03;;
62123;SDS011;48110;47.532;19.078;2022-10-01T13:21:25;3.62;;;2.20;;
62123;SDS011;48110;47.532;19.078;2022-10-01T13:31:35;5.72;;;2.75;;
62123;SDS011;48110;47.532;19.078;2022-10-01T13:34:42;5.95;;;2.75;;
62123;SDS011;48110;47.532;19.078;2022-10-01T13:37:53;4.35;;;2.87;;
62123;SDS011;48110;47.532;19.078;2022-10-01T13:41:02;6.80;;;2.97;;
62123;SDS011;48110;47.532;19.078;2022-10-01T13:44:16;5.87;;;3.40;;
62123;SDS011;48110;47.532;19.078;2022-10-01T13:47:30;6.15;;;3.37;;
62123;SDS011;48110;47.532;19.078;2022-10-01T13:50:54;5.95;;;3.60;;
62123;SDS011;48110;47.532;19.078;2022-10-01T13:54:05;6.57;;;5.37;;
62123;SDS011;48110;47.532;19.078;2022-10-01T14:00:48;11.75;;;8.93;;
62123;SDS011;48110;47.532;19.078;2022-10-01T14:07:21;15.18;;;10.20;;
62123;SDS011;48110;47.532;19.078;2022-10-01T14:10:35;11.63;;;9.65;;
62123;SDS011;48110;47.532;19.078;2022-10-01T14:17:52;13.00;;;9.90;;
62123;SDS011;48110;47.532;19.078;2022-10-01T14:24:48;14.77;;;9.32;;
62123;SDS011;48110;47.532;19.078;2022-10-01T14:28:15;13.40;;;9.88;;
62123;SDS011;48110;47.532;19.078;2022-10-01T14:35:19;11.45;;;8.88;;
62123;SDS011;48110;47.532;19.078;2022-10-01T14:38:43;11.93;;;9.55;;
62123;SDS011;48110;47.532;19.078;2022-10-01T14:41:51;20.83;;;14.10;;
62123;SDS011;48110;47.532;19.078;2022-10-01T14:45:00;12.88;;;9.13;;
62123;SDS011;48110;47.532;19.078;2022-10-01T14:48:05;12.30;;;8.98;;
62123;SDS011;48110;47.532;19.078;2022-10-01T14:51:22;12.48;;;8.60;;
62123;SDS011;48110;47.532;19.078;2022-10-01T14:54:40;13.05;;;10.07;;
62123;SDS011;48110;47.532;19.078;2022-10-01T14:57:54;14.85;;;12.55;;
62123;SDS011;48110;47.532;19.078;2022-10-01T15:04:15;19.15;;;14.70;;
62123;SDS011;48110;47.532;19.078;2022-10-01T15:07:30;19.23;;;15.13;;
62123;SDS011;48110;47.532;19.078;2022-10-01T15:10:43;21.52;;;14.93;;
62123;SDS011;48110;47.532;19.078;2022-10-01T15:14:00;20.33;;;14.65;;
62123;SDS011;48110;47.532;19.078;2022-10-01T15:17:20;26.87;;;14.80;;
62123;SDS011;48110;47.532;19.078;2022-10-01T15:20:33;21.92;;;14.30;;
62123;SDS011;48110;47.532;19.078;2022-10-01T15:23:41;20.40;;;13.48;;
62123;SDS011;48110;47.532;19.078;2022-10-01T15:26:50;21.00;;;12.15;;
62123;SDS011;48110;47.532;19.078;2022-10-01T15:33:07;17.45;;;12.43;;
62123;SDS011;48110;47.532;19.078;2022-10-01T15:36:26;19.55;;;12.63;;
62123;SDS011;48110;47.532;19.078;2022-10-01T15:39:38;14.60;;;11.70;;
62123;SDS011;48110;47.532;19.078;2022-10-01T15:46:26;13.55;;;10.10;;
62123;SDS011;48110;47.532;19.078;2022-10-01T15:49:37;14.82;;;9.75;;
62123;SDS011;48110;47.532;19.078;2022-10-01T15:55:57;12.00;;;7.97;;
62123;SDS011;48110;47.532;19.078;2022-10-01T15:59:15;12.73;;;8.20;;
62123;SDS011;48110;47.532;19.078;2022-10-01T16:02:25;13.93;;;7.28;;
62123;SDS011;48110;47.532;19.078;2022-10-01T16:05:37;9.82;;;6.05;;
62123;SDS011;48110;47.532;19.078;2022-10-01T16:12:17;7.90;;;5.20;;
62123;SDS011;48110;47.532;19.078;2022-10-01T16:15:26;9.80;;;5.10;;
62123;SDS011;48110;47.532;19.078;2022-10-01T16:18:33;6.87;;;4.53;;
62123;SDS011;48110;47.532;19.078;2022-10-01T16:21:40;7.15;;;4.57;;
62123;SDS011;48110;47.532;19.078;2022-10-01T16:28:03;6.97;;;4.60;;
62123;SDS011;48110;47.532;19.078;2022-10-01T16:31:24;10.70;;;4.57;;
62123;SDS011;48110;47.532;19.078;2022-10-01T16:34:32;6.37;;;4.40;;
62123;SDS011;48110;47.532;19.078;2022-10-01T16:40:50;7.53;;;4.07;;
62123;SDS011;48110;47.532;19.078;2022-10-01T16:44:00;7.90;;;3.53;;
62123;SDS011;48110;47.532;19.078;2022-10-01T16:47:10;5.87;;;3.67;;
62123;SDS011;48110;47.532;19.078;2022-10-01T16:50:18;6.47;;;3.65;;
62123;SDS011;48110;47.532;19.078;2022-10-01T16:53:26;6.32;;;3.92;;
62123;SDS011;48110;47.532;19.078;2022-10-01T16:56:31;5.22;;;3.78;;
62123;SDS011;48110;47.532;19.078;2022-10-01T16:59:37;4.82;;;3.50;;
62123;SDS011;48110;47.532;19.078;2022-10-01T17:02:46;6.80;;;3.37;;
62123;SDS011;48110;47.532;19.078;2022-10-01T17:05:55;6.70;;;3.42;;
62123;SDS011;48110;47.532;19.078;2022-10-01T17:09:03;4.47;;;2.72;;
62123;SDS011;48110;47.532;19.078;2022-10-01T17:12:10;5.65;;;2.58;;
62123;SDS011;48110;47.532;19.078;2022-10-01T17:15:20;4.47;;;2.58;;
62123;SDS011;48110;47.532;19.078;2022-10-01T17:18:30;6.47;;;2.40;;
62123;SDS011;48110;47.532;19.078;2022-10-01T17:21:39;3.42;;;2.22;;
62123;SDS011;48110;47.532;19.078;2022-10-01T17:24:47;3.30;;;2.40;;
62123;SDS011;48110;47.532;19.078;2022-10-01T17:27:57;3.58;;;2.33;;
62123;SDS011;48110;47.532;19.078;2022-10-01T17:31:06;4.72;;;2.80;;
62123;SDS011;48110;47.532;19.078;2022-10-01T17:34:19;4.53;;;2.80;;
62123;SDS011;48110;47.532;19.078;2022-10-01T17:37:27;5.40;;;3.65;;
62123;SDS011;48110;47.532;19.078;2022-10-01T17:40:38;5.32;;;4.20;;
62123;SDS011;48110;47.532;19.078;2022-10-01T17:46:55;11.52;;;6.28;;
62123;SDS011;48110;47.532;19.078;2022-10-01T17:50:02;7.07;;;5.80;;
62123;SDS011;48110;47.532;19.078;2022-10-01T17:53:10;8.38;;;6.18;;
62123;SDS011;48110;47.532;19.078;2022-10-01T17:56:16;8.23;;;6.75;;
62123;SDS011;48110;47.532;19.078;2022-10-01T17:59:26;8.82;;;6.37;;
62123;SDS011;48110;47.532;19.078;2022-10-01T18:02:35;8.95;;;7.00;;
62123;SDS011;48110;47.532;19.078;2022-10-01T18:05:47;10.52;;;7.47;;
62123;SDS011;48110;47.532;19.078;2022-10-01T18:08:55;9.90;;;7.20;;
62123;SDS011;48110;47.532;19.078;2022-10-01T18:12:03;10.00;;;7.12;;
62123;SDS011;48110;47.532;19.078;2022-10-01T18:15:12;11.30;;;7.30;;
62123;SDS011;48110;47.532;19.078;2022-10-01T18:18:20;9.63;;;7.22;;
62123;SDS011;48110;47.532;19.078;2022-10-01T18:21:48;10.38;;;7.85;;
62123;SDS011;48110;47.532;19.078;2022-10-01T18:24:56;9.82;;;7.93;;
62123;SDS011;48110;47.532;19.078;2022-10-01T18:28:03;11.85;;;8.82;;
62123;SDS011;48110;47.532;19.078;2022-10-01T18:37:51;10.88;;;8.02;;
62123;SDS011;48110;47.532;19.078;2022-10-01T18:41:01;11.15;;;8.65;;
62123;SDS011;48110;47.532;19.078;2022-10-01T18:44:14;12.68;;;9.18;;
62123;SDS011;48110;47.532;19.078;2022-10-01T18:54:42;11.63;;;9.75;;
62123;SDS011;48110;47.532;19.078;2022-10-01T19:22:23;17.95;;;14.25;;
62123;SDS011;48110;47.532;19.078;2022-10-01T19:25:43;18.40;;;15.43;;
62123;SDS011;48110;47.532;19.078;2022-10-01T19:29:00;17.15;;;15.25;;
62123;SDS011;48110;47.532;19.078;2022-10-01T19:32:33;15.45;;;13.80;;
62123;SDS011;48110;47.532;19.078;2022-10-01T19:35:45;16.60;;;13.73;;
62123;SDS011;48110;47.532;19.078;2022-10-01T19:38:57;15.32;;;13.43;;
62123;SDS011;48110;47.532;19.078;2022-10-01T19:42:11;14.48;;;12.35;;
62123;SDS011;48110;47.532;19.078;2022-10-01T19:45:32;14.65;;;12.02;;
62123;SDS011;48110;47.532;19.078;2022-10-01T19:52:14;9.75;;;8.60;;
62123;SDS011;48110;47.532;19.078;2022-10-01T19:55:22;10.13;;;8.30;;
62123;SDS011;48110;47.532;19.078;2022-10-01T19:58:31;8.75;;;7.15;;
62123;SDS011;48110;47.532;19.078;2022-10-01T20:01:39;8.57;;;6.80;;
62123;SDS011;48110;47.532;19.078;2022-10-01T20:12:06;9.65;;;6.80;;
62123;SDS011;48110;47.532;19.078;2022-10-01T20:15:45;11.60;;;6.28;;
62123;SDS011;48110;47.532;19.078;2022-10-01T20:22:25;10.95;;;6.82;;
62123;SDS011;48110;47.532;19.078;2022-10-01T20:25:41;7.80;;;7.00;;
62123;SDS011;48110;47.532;19.078;2022-10-01T20:39:30;10.38;;;6.70;;
62123;SDS011;48110;47.532;19.078;2022-10-01T20:42:41;9.23;;;6.62;;
62123;SDS011;48110;47.532;19.078;2022-10-01T20:45:50;10.27;;;6.55;;
62123;SDS011;48110;47.532;19.078;2022-10-01T20:49:07;8.65;;;6.22;;
62123;SDS011;48110;47.532;19.078;2022-10-01T20:55:49;7.93;;;5.82;;
62123;SDS011;48110;47.532;19.078;2022-10-01T20:59:16;7.20;;;5.37;;
62123;SDS011;48110;47.532;19.078;2022-10-01T21:02:38;7.47;;;5.53;;
62123;SDS011;48110;47.532;19.078;2022-10-01T21:09:08;7.45;;;5.53;;
62123;SDS011;48110;47.532;19.078;2022-10-01T21:12:18;6.65;;;5.87;;
62123;SDS011;48110;47.532;19.078;2022-10-01T21:15:33;6.95;;;5.25;;
62123;SDS011;48110;47.532;19.078;2022-10-01T21:38:59;2.83;;;2.40;;
62123;SDS011;48110;47.532;19.078;2022-10-01T21:42:18;3.87;;;2.37;;
62123;SDS011;48110;47.532;19.078;2022-10-01T21:49:28;3.80;;;2.58;;
62123;SDS011;48110;47.532;19.078;2022-10-01T22:03:21;3.83;;;2.35;;
62123;SDS011;48110;47.532;19.078;2022-10-01T22:06:53;2.97;;;2.28;;
62123;SDS011;48110;47.532;19.078;2022-10-01T22:13:24;2.90;;;2.00;;
62123;SDS011;48110;47.532;19.078;2022-10-01T22:16:33;4.47;;;2.25;;
62123;SDS011;48110;47.532;19.078;2022-10-01T22:19:49;3.75;;;1.90;;
62123;SDS011;48110;47.532;19.078;2022-10-01T22:22:57;1.80;;;1.55;;
62123;SDS011;48110;47.532;19.078;2022-10-01T22:26:10;2.33;;;1.83;;
62123;SDS011;48110;47.532;19.078;2022-10-01T22:29:28;1.70;;;1.40;;
62123;SDS011;48110;47.532;19.078;2022-10-01T22:36:16;2.12;;;1.20;;
62123;SDS011;48110;47.532;19.078;2022-10-01T22:39:27;2.40;;;1.52;;
62123;SDS011;48110;47.532;19.078;2022-10-01T22:42:39;2.47;;;1.42;;
62123;SDS011;48110;47.532;19.078;2022-10-01T22:45:57;3.03;;;1.40;;
62123;SDS011;48110;47.532;19.078;2022-10-01T22:49:33;2.03;;;1.55;;
62123;SDS011;48110;47.532;19.078;2022-10-01T22:56:10;2.30;;;1.95;;
62123;SDS011;48110;47.532;19.078;2022-10-01T23:03:27;2.03;;;1.45;;